tititudorancea.com
Station Historical Data
Daily Summary for February 10, 2018 Units:  Metric    English   Both
« Previous Day
Next Day »
Daily Weekly Monthly Yearly Custom
  High: Low: Average:
Temperature: -17.8 °C 14.6 °C 24.2 °C
Dew Point: -17.8 °C 11.1 °C 14.4 °C
Humidity: Humidity % 32 % 56 %
Wind Speed: 0 km/h 0 km/h 10.9 km/h
Wind Gust: 0 km/h - -
Wind:- - SW
Pressure: 0 hPa 998.9 hPa -
Precipitation: 0 mm    
Historical Graphs
 
 
Ararat weather Find more about Weather in Ararat, AU


 



 


Tabular Data for February 10, 2018
Time Temperature Dew Point Pressure Wind Wind Speed Wind Gust Humidity Rainfall Rate (Hourly)
-17.8 °C -17.8 °C 0 hPa Calm     Humidity % 0 mm
00:02 22.4 °C 15.5 °C 1008.4 hPa Calm     65 % 0 mm
00:07 22.3 °C 15.4 °C 1008.4 hPa Calm     65 % 0 mm
00:12 22.1 °C 15.4 °C 1008.4 hPa Calm     66 % 0 mm
00:17 21.8 °C 15.4 °C 1008.4 hPa Calm     67 % 0 mm
00:22 21.6 °C 15.4 °C 1008.4 hPa SSE 0.5 km/h 3.2 km/h 68 % 0 mm
00:27 21.4 °C 15.5 °C 1008 hPa Calm     69 % 0 mm
00:32 21.3 °C 15.4 °C 1008 hPa Calm     69 % 0 mm
00:37 21.3 °C 15.3 °C 1008 hPa Calm     69 % 0 mm
00:42 21.2 °C 15.6 °C 1008 hPa Calm     70 % 0 mm
00:47 21.2 °C 15.6 °C 1008 hPa Calm     70 % 0 mm
00:52 21.2 °C 15.6 °C 1008 hPa Calm     70 % 0 mm
00:57 21.2 °C 15.5 °C 1008 hPa Calm     70 % 0 mm
01:02 21 °C 15.3 °C 1008 hPa Calm     70 % 0 mm
01:07 20.8 °C 15.4 °C 1008 hPa Calm     71 % 0 mm
01:12 20.8 °C 15.3 °C 1008 hPa Calm     71 % 0 mm
01:17 20.7 °C 15.2 °C 1007.7 hPa Calm     71 % 0 mm
01:22 20.6 °C 15.3 °C 1007.7 hPa Calm     72 % 0 mm
01:27 20.5 °C 15.3 °C 1007.7 hPa SSE 4.5 km/h 5.6 km/h 72 % 0 mm
01:32 20.6 °C 15.3 °C 1007.7 hPa SSE 2.6 km/h 5.6 km/h 72 % 0 mm
01:37 20.9 °C 15.7 °C 1007.7 hPa SSE 2.4 km/h 5.6 km/h 72 % 0 mm
01:42 21.4 °C 15.5 °C 1007.3 hPa SSE 1.1 km/h 3.7 km/h 69 % 0 mm
01:47 21.9 °C 15.5 °C 1007.3 hPa SSE 4 km/h 6.4 km/h 67 % 0 mm
01:52 22.2 °C 15.5 °C 1007.3 hPa SSE 0.8 km/h 3.2 km/h 66 % 0 mm
01:57 22.3 °C 15.6 °C 1007.3 hPa SSE 1.6 km/h 3.7 km/h 66 % 0 mm
02:02 22.4 °C 15.5 °C 1007.3 hPa North 4 km/h 5.6 km/h 65 % 0 mm
02:07 22.6 °C 15.7 °C 1007.3 hPa SSE 2.1 km/h 3.7 km/h 65 % 0 mm
02:12 22.7 °C 15.5 °C 1007 hPa SSE 2.7 km/h 5.6 km/h 64 % 0 mm
02:17 22.7 °C 15.5 °C 1007 hPa North 0.6 km/h 1.9 km/h 64 % 0 mm
02:22 22.6 °C 15.4 °C 1007 hPa Calm     64 % 0 mm
02:27 22.5 °C 15.3 °C 1006.7 hPa Calm     64 % 0 mm
02:32 22.3 °C 15.4 °C 1006.7 hPa Calm     65 % 0 mm
02:37 22.2 °C 15.5 °C 1006.7 hPa Calm     66 % 0 mm
02:42 22 °C 15.3 °C 1006.3 hPa SSE 1.8 km/h 3.7 km/h 66 % 0 mm
02:47 22.1 °C 15.4 °C 1006.3 hPa SSE 1.1 km/h 3.7 km/h 66 % 0 mm
02:52 22.2 °C 15.6 °C 1006.3 hPa Calm   3.7 km/h 66 % 0 mm
02:57 22.3 °C 15.4 °C 1006.3 hPa SSE 1.9 km/h 3.7 km/h 65 % 0 mm
03:02 22.3 °C 15.4 °C 1006.3 hPa SSE 2.9 km/h 5.6 km/h 65 % 0 mm
03:07 22.3 °C 15.4 °C 1006.3 hPa North 5 km/h 7.4 km/h 65 % 0 mm
03:12 22.4 °C 15.6 °C 1006.3 hPa SSE 6 km/h 7.4 km/h 65 % 0 mm
03:17 22.5 °C 15.6 °C 1006.3 hPa SSE 1.3 km/h 5.6 km/h 65 % 0 mm
03:22 22.6 °C 15.7 °C 1006.3 hPa SSE 5.3 km/h 7.4 km/h 65 % 0 mm
03:27 22.6 °C 15.4 °C 1006 hPa SSE 1.6 km/h 5.6 km/h 64 % 0 mm
03:32 22.6 °C 15.4 °C 1005.6 hPa Calm     64 % 0 mm
03:37 22.5 °C 15.3 °C 1005.6 hPa Calm   3.7 km/h 64 % 0 mm
03:42 22.4 °C 15.3 °C 1005.6 hPa SSE 5.3 km/h 7.4 km/h 64 % 0 mm
03:47 22.5 °C 15.3 °C 1005.6 hPa SSE 0.6 km/h 3.2 km/h 64 % 0 mm
03:52 22.4 °C 15.3 °C 1005.6 hPa SSE 4.2 km/h 7.4 km/h 64 % 0 mm
03:57 22.6 °C 15.4 °C 1005.6 hPa SSE 5.8 km/h 7.4 km/h 64 % 0 mm
04:02 22.6 °C 15.4 °C 1005.6 hPa SSE 7.2 km/h 9.3 km/h 64 % 0 mm
04:07 22.7 °C 15.5 °C 1005.6 hPa SSE 6.3 km/h 7.4 km/h 64 % 0 mm
04:12 22.7 °C 15.5 °C 1005.6 hPa SSE 0.8 km/h 1.9 km/h 64 % 0 mm
04:17 22.6 °C 15.4 °C 1005.3 hPa SSE 1 km/h 3.7 km/h 64 % 0 mm
04:22 22.5 °C 15.3 °C 1005.3 hPa Calm     64 % 0 mm
04:27 22.4 °C 15.2 °C 1005.3 hPa SSE 1.9 km/h 3.2 km/h 64 % 0 mm
04:32 22.3 °C 15.4 °C 1005 hPa SSE 5.5 km/h 7.4 km/h 65 % 0 mm
04:37 22.2 °C 15.3 °C 1005 hPa North 3.1 km/h 6.4 km/h 65 % 0 mm
04:42 21.9 °C 15.1 °C 1005 hPa SSE 0.6 km/h 1.9 km/h 65 % 0 mm
04:47 21.7 °C 15.1 °C 1005 hPa SSE 0.3 km/h 1.9 km/h 66 % 0 mm
04:52 21.6 °C 15.2 °C 1004.6 hPa SSE 3.1 km/h 3.7 km/h 67 % 0 mm
04:57 21.3 °C 14.9 °C 1004.6 hPa SSE 3.2 km/h 5.6 km/h 67 % 0 mm
05:02 21.2 °C 15.1 °C 1004.6 hPa SSE 1.1 km/h 3.2 km/h 68 % 0 mm
05:07 21.2 °C 15 °C 1004.6 hPa Calm   1.6 km/h 68 % 0 mm
05:12 21.2 °C 15.3 °C 1004.6 hPa SSE 4 km/h 5.6 km/h 69 % 0 mm
05:17 21.5 °C 15.3 °C 1004.6 hPa SSE 6.6 km/h 9.3 km/h 68 % 0 mm
05:22 21.7 °C 15.3 °C 1005 hPa SSE 6.4 km/h 8 km/h 67 % 0 mm
05:27 21.8 °C 15.4 °C 1005 hPa SSE 3.1 km/h 7.4 km/h 67 % 0 mm
05:32 22 °C 15.3 °C 1005 hPa SSE 3.4 km/h 5.6 km/h 66 % 0 mm
05:37 22.1 °C 15.4 °C 1005 hPa SSE 6.9 km/h 9.3 km/h 66 % 0 mm
05:42 22.2 °C 15.5 °C 1005 hPa SSE 4.8 km/h 7.4 km/h 66 % 0 mm
05:47 22.2 °C 15.3 °C 1005 hPa SSE 6.6 km/h 8 km/h 65 % 0 mm
05:52 22.2 °C 15.3 °C 1005.3 hPa SSE 4.8 km/h 7.4 km/h 65 % 0 mm
05:57 22.3 °C 15.4 °C 1005 hPa SSE 3.4 km/h 5.6 km/h 65 % 0 mm
06:02 22.3 °C 15.4 °C 1005 hPa Calm   5.6 km/h 65 % 0 mm
06:07 22.3 °C 15.4 °C 1005 hPa Calm     65 % 0 mm
06:12 22.2 °C 15.5 °C 1005 hPa Calm     66 % 0 mm
06:17 22 °C 15.3 °C 1005 hPa Calm     66 % 0 mm
06:22 21.8 °C 15.4 °C 1005 hPa SSE 4 km/h 6.4 km/h 67 % 0 mm
06:27 21.4 °C 15.1 °C 1005 hPa SSE 6.6 km/h 7.4 km/h 67 % 0 mm
06:32 21.2 °C 15 °C 1005 hPa SSE 6.8 km/h 8 km/h 68 % 0 mm
06:37 20.9 °C 15.1 °C 1004.6 hPa SSE 7.7 km/h 9.7 km/h 69 % 0 mm
06:42 20.8 °C 15.2 °C 1004.6 hPa SE 7.9 km/h 11.1 km/h 70 % 0 mm
06:47 20.7 °C 15.1 °C 1004.6 hPa ESE 7.6 km/h 9.3 km/h 70 % 0 mm
06:52 20.7 °C 15 °C 1004.6 hPa ESE 7.1 km/h 9.7 km/h 70 % 0 mm
06:57 20.7 °C 15 °C 1004.6 hPa ESE 6.4 km/h 8 km/h 70 % 0 mm
07:02 20.7 °C 15 °C 1004.6 hPa ESE 5.3 km/h 9.3 km/h 70 % 0 mm
07:07 20.6 °C 14.9 °C 1004.3 hPa ESE 7.1 km/h 9.3 km/h 70 % 0 mm
07:12 20.6 °C 14.9 °C 1004.3 hPa ESE 8.5 km/h 9.3 km/h 70 % 0 mm
07:17 20.7 °C 15 °C 1004.3 hPa ESE 7.7 km/h 9.3 km/h 70 % 0 mm
07:22 20.8 °C 15.1 °C 1004.3 hPa ESE 4.8 km/h 7.4 km/h 70 % 0 mm
07:27 20.9 °C 15 °C 1004.3 hPa ESE 2.9 km/h 9.3 km/h 69 % 0 mm
07:33 20.9 °C 15.1 °C 1003.9 hPa ESE 5.3 km/h 5.6 km/h 69 % 0 mm
07:38 21 °C 15.1 °C 1004.3 hPa ESE 1.9 km/h 3.7 km/h 69 % 0 mm
07:43 21.2 °C 15.1 °C 1003.9 hPa ESE 2.3 km/h 3.7 km/h 68 % 0 mm
07:48 21.5 °C 15.1 °C 1004.3 hPa ESE 5.6 km/h 7.4 km/h 67 % 0 mm
07:53 21.9 °C 15 °C 1004.3 hPa ESE 2.4 km/h 6.4 km/h 65 % 0 mm
07:58 22.3 °C 15.1 °C 1004.3 hPa ESE 2.1 km/h 3.7 km/h 64 % 0 mm
08:03 22.7 °C 15.3 °C 1004.3 hPa ESE 4.3 km/h 9.3 km/h 63 % 0 mm
08:08 23.2 °C 15.2 °C 1004.3 hPa ESE 1 km/h 3.7 km/h 61 % 0 mm
08:13 23.4 °C 14.9 °C 1004.6 hPa ESE 0.3 km/h 1.9 km/h 59 % 0 mm
08:18 23.6 °C 14.9 °C 1004.6 hPa ESE 1.6 km/h 5.6 km/h 58 % 0 mm
08:23 23.8 °C 15 °C 1005 hPa ESE 3.4 km/h 5.6 km/h 58 % 0 mm
08:28 24 °C 14.9 °C 1005 hPa ESE 5 km/h 7.4 km/h 57 % 0 mm
08:33 24.3 °C 14.7 °C 1005 hPa ENE 6 km/h 7.4 km/h 55 % 0 mm
08:38 24.6 °C 14.6 °C 1005 hPa ENE 4.7 km/h 7.4 km/h 54 % 0 mm
08:43 24.7 °C 14.5 °C 1005 hPa ENE 11.1 km/h 11.1 km/h 53 % 0 mm
08:48 24.8 °C 14.3 °C 1005 hPa NE 6.8 km/h 7.4 km/h 52 % 0 mm
08:53 24.9 °C 14.1 °C 1005.3 hPa North 10.1 km/h 14.8 km/h 51 % 0 mm
08:58 24.9 °C 14.1 °C 1005.3 hPa NW 9 km/h 13 km/h 51 % 0 mm
09:03 24.9 °C 14.1 °C 1005 hPa NNW 4.8 km/h 11.3 km/h 51 % 0 mm
09:08 24.9 °C 14.3 °C 1005 hPa North 8.4 km/h 11.3 km/h 52 % 0 mm
09:13 24.8 °C 14.3 °C 1005 hPa NNW 8.2 km/h 13 km/h 52 % 0 mm
09:18 24.8 °C 14.3 °C 1005.3 hPa NNW 8.5 km/h 11.1 km/h 52 % 0 mm
09:23 24.7 °C 14.2 °C 1005.6 hPa NNW 7.9 km/h 14.8 km/h 52 % 0 mm
09:28 24.8 °C 14.3 °C 1005.6 hPa North 10.8 km/h 13 km/h 52 % 0 mm
09:33 24.8 °C 14 °C 1006 hPa NW 8.7 km/h 13 km/h 51 % 0 mm
09:38 25 °C 14.2 °C 1006.3 hPa North 10.1 km/h 14.8 km/h 51 % 0 mm
09:43 25.1 °C 14.5 °C 1005.6 hPa North 6.4 km/h 13 km/h 52 % 0 mm
09:48 25.1 °C 14.5 °C 1005.6 hPa North 8.5 km/h 9.3 km/h 52 % 0 mm
09:53 25.1 °C 14.6 °C 1005.6 hPa WNW 2.4 km/h 6.4 km/h 52 % 0 mm
09:58 25.1 °C 14.6 °C 1005.3 hPa WNW 2.6 km/h 4.8 km/h 52 % 0 mm
10:03 25.1 °C 14.6 °C 1005.3 hPa WNW 3.1 km/h 7.4 km/h 52 % 0 mm
10:08 25.1 °C 14.6 °C 1005.6 hPa WNW 3.5 km/h 5.6 km/h 52 % 0 mm
10:13 25.2 °C 14.6 °C 1005.6 hPa WNW 3.9 km/h 6.4 km/h 52 % 0 mm
10:18 25.1 °C 15.2 °C 1005.6 hPa North 0.3 km/h 5.6 km/h 54 % 0 mm
10:23 24.9 °C 15.6 °C 1005.6 hPa WNW 2.4 km/h 5.6 km/h 56 % 0 mm
10:28 24.8 °C 15.9 °C 1005.3 hPa WNW 1.4 km/h 3.7 km/h 58 % 0 mm
10:33 24.7 °C 16.4 °C 1004.6 hPa North 1.3 km/h 3.2 km/h 60 % 0 mm
10:38 24.7 °C 16.1 °C 1004.6 hPa WNW 4.5 km/h 6.4 km/h 59 % 0 mm
10:43 24.7 °C 15.9 °C 1004.6 hPa WNW 6.9 km/h 11.1 km/h 58 % 0 mm
10:48 24.7 °C 15.6 °C 1004.6 hPa North 9.2 km/h 13 km/h 57 % 0 mm
10:53 24.8 °C 15.4 °C 1004.3 hPa NNE 7.9 km/h 12.9 km/h 56 % 0 mm
10:58 24.9 °C 15.6 °C 1004.6 hPa North 7.6 km/h 18.5 km/h 56 % 0 mm
11:03 25.1 °C 15.4 °C 1004.6 hPa North 4.7 km/h 13 km/h 55 % 0 mm
11:08 25.3 °C 15.3 °C 1004.6 hPa North 6.9 km/h 9.3 km/h 54 % 0 mm
11:13 25.3 °C 14.8 °C 1004.6 hPa North 7.4 km/h 22.2 km/h 52 % 0 mm
11:18 25.4 °C 14.5 °C 1004.3 hPa North 12.9 km/h 18.5 km/h 51 % 0 mm
11:23 25.6 °C 14.7 °C 1004.3 hPa NNW 13.5 km/h 22.2 km/h 51 % 0 mm
11:28 25.7 °C 14.5 °C 1004.3 hPa North 12.4 km/h 18.5 km/h 50 % 0 mm
11:33 25.9 °C 14.4 °C 1004.3 hPa North 8.9 km/h 20.4 km/h 49 % 0 mm
11:38 26.2 °C 14.3 °C 1003.9 hPa NNW 15.1 km/h 24.1 km/h 48 % 0 mm
11:43 26.5 °C 14.6 °C 1003.9 hPa NNW 5.1 km/h 18.5 km/h 48 % 0 mm
11:48 26.9 °C 14.6 °C 1003.9 hPa North 12.6 km/h 18.5 km/h 47 % 0 mm
11:53 27.4 °C 14.4 °C 1003.6 hPa NNE 12.6 km/h 27.8 km/h 45 % 0 mm
11:58 27.5 °C 14.2 °C 1003.9 hPa NNW 10.3 km/h 25.9 km/h 44 % 0 mm
12:03 27.6 °C 13.9 °C 1003.6 hPa North 24 km/h 33.3 km/h 43 % 0 mm
12:08 27.7 °C 13.9 °C 1003.3 hPa North 20.3 km/h 27.8 km/h 43 % 0 mm
12:13 27.7 °C 14 °C 1003.3 hPa NW 18 km/h 27.8 km/h 43 % 0 mm
12:18 28 °C 13.9 °C 1003.3 hPa North 22.9 km/h 33.3 km/h 42 % 0 mm
12:23 28.2 °C 14.1 °C 1002.9 hPa North 15.9 km/h 20.9 km/h 42 % 0 mm
12:28 28.1 °C 14 °C 1002.9 hPa NNW 19 km/h 31.5 km/h 42 % 0 mm
12:33 27.9 °C 13.8 °C 1002.9 hPa NNE 19.2 km/h 33.3 km/h 42 % 0 mm
12:38 28 °C 13.9 °C 1002.6 hPa North 18.2 km/h 31.5 km/h 42 % 0 mm
12:43 27.9 °C 13.8 °C 1002.6 hPa NW 20.6 km/h 31.5 km/h 42 % 0 mm
12:48 28 °C 13.9 °C 1002.6 hPa North 15.1 km/h 20.4 km/h 42 % 0 mm
12:53 28.1 °C 14 °C 1002.6 hPa NNE 12.1 km/h 22.2 km/h 42 % 0 mm
12:58 28 °C 13.9 °C 1002.9 hPa NNW 13.7 km/h 24.1 km/h 42 % 0 mm
13:03 27.8 °C 13.7 °C 1002.9 hPa NW 17.4 km/h 33.3 km/h 42 % 0 mm
13:08 27.9 °C 13.8 °C 1002.9 hPa NW 18 km/h 27.8 km/h 42 % 0 mm
13:13 27.9 °C 13.8 °C 1002.9 hPa NW 14.8 km/h 25.9 km/h 42 % 0 mm
13:18 28 °C 13.5 °C 1002.9 hPa NW 20.8 km/h 29.6 km/h 41 % 0 mm
13:23 28.1 °C 13.6 °C 1002.9 hPa WNW 24 km/h 27.8 km/h 41 % 0 mm
13:28 28.2 °C 13.7 °C 1002.6 hPa NNW 15.3 km/h 31.5 km/h 41 % 0 mm
13:33 28.2 °C 13.7 °C 1002.6 hPa North 13.7 km/h 22.2 km/h 41 % 0 mm
13:38 28 °C 13.9 °C 1002.6 hPa North 24.1 km/h 37 km/h 42 % 0 mm
13:43 28 °C 13.9 °C 1002.6 hPa North 22.7 km/h 33.3 km/h 42 % 0 mm
13:48 28.2 °C 14.4 °C 1002.6 hPa NNW 15.6 km/h 29.6 km/h 43 % 0 mm
13:53 28.8 °C 14.6 °C 1002.6 hPa NNW 18.5 km/h 35.4 km/h 42 % 0 mm
13:58 28.9 °C 14.7 °C 1002.3 hPa NW 24.9 km/h 25.9 km/h 42 % 0 mm
14:03 28.6 °C 14.8 °C 1002.3 hPa NW 15.6 km/h 33.8 km/h 43 % 0 mm
14:08 28.5 °C 15.1 °C 1001.9 hPa NNW 11.9 km/h 35.2 km/h 44 % 0 mm
14:13 28.1 °C 15.1 °C 1001.9 hPa NNW 18.8 km/h 25.7 km/h 45 % 0 mm
14:18 28.1 °C 15.4 °C 1001.9 hPa NW 16.1 km/h 24.1 km/h 46 % 0 mm
14:23 28.3 °C 15.6 °C 1001.6 hPa North 17.7 km/h 25.7 km/h 46 % 0 mm
14:28 28.6 °C 15.4 °C 1001.6 hPa North 15.6 km/h 24.1 km/h 45 % 0 mm
14:33 28.6 °C 15.5 °C 1001.6 hPa NW 17.2 km/h 29.6 km/h 45 % 0 mm
14:38 28.3 °C 15.3 °C 1001.6 hPa North 21.1 km/h 27.8 km/h 45 % 0 mm
14:43 28.1 °C 15.4 °C 1001.6 hPa NNW 13 km/h 32.2 km/h 46 % 0 mm
14:48 28.3 °C 15.3 °C 1001.2 hPa North 25.9 km/h 38.9 km/h 45 % 0 mm
14:53 28.5 °C 15.4 °C 1001.2 hPa NNW 20.3 km/h 32.2 km/h 45 % 0 mm
14:58 28.4 °C 15.3 °C 1000.9 hPa North 17.1 km/h 24.1 km/h 45 % 0 mm
15:03 28.5 °C 15.4 °C 1000.9 hPa NNW 19 km/h 24.1 km/h 45 % 0 mm
15:08 28.9 °C 15.1 °C 1000.9 hPa North 21.9 km/h 37 km/h 43 % 0 mm
15:14 29.7 °C 15.4 °C 1000.6 hPa North 25.7 km/h 27.8 km/h 42 % 0 mm
15:19 30.1 °C 15.4 °C 1000.6 hPa NW 19.2 km/h 37 km/h 41 % 0 mm
15:24 30.5 °C 15.4 °C 1000.6 hPa NW 18.7 km/h 31.5 km/h 40 % 0 mm
15:29 30.8 °C 15.2 °C 1000.6 hPa NNW 21.7 km/h 31.5 km/h 39 % 0 mm
15:34 30.6 °C 15.4 °C 1000.2 hPa North 21.4 km/h 29.6 km/h 40 % 0 mm
15:39 30.6 °C 15.4 °C 1000.2 hPa NNW 16.4 km/h 25.9 km/h 40 % 0 mm
15:44 30.8 °C 15.6 °C 1000.2 hPa NNW 16.1 km/h 22.2 km/h 40 % 0 mm
15:49 31.3 °C 15.3 °C 999.9 hPa NNE 19.6 km/h 31.5 km/h 38 % 0 mm
15:54 31.7 °C 15.2 °C 999.9 hPa NW 19 km/h 22.2 km/h 37 % 0 mm
15:59 31.7 °C 15.2 °C 999.9 hPa NW 22.5 km/h 29.6 km/h 37 % 0 mm
16:04 31.8 °C 14.9 °C 999.5 hPa North 23.5 km/h 37 km/h 36 % 0 mm
16:09 31.9 °C 15 °C 999.5 hPa NW 22.9 km/h 35.2 km/h 36 % 0 mm
16:14 31.8 °C 14.9 °C 999.5 hPa NW 12.4 km/h 27.8 km/h 36 % 0 mm
16:19 31.9 °C 14.9 °C 999.5 hPa WNW 12.2 km/h 14.8 km/h 36 % 0 mm
16:24 32.2 °C 13.9 °C 999.2 hPa West 22.9 km/h 33.3 km/h 33 % 0 mm
16:29 32.1 °C 14.3 °C 999.2 hPa NW 15.8 km/h 27.8 km/h 34 % 0 mm
16:34 32.1 °C 14.2 °C 998.9 hPa WNW 17.5 km/h 33.3 km/h 34 % 0 mm
16:39 32.3 °C 13.9 °C 998.9 hPa West 21.6 km/h 29.6 km/h 33 % 0 mm
16:44 32.5 °C 13.7 °C 998.9 hPa North 28 km/h 33.3 km/h 32 % 0 mm
16:49 32.5 °C 14.2 °C 999.9 hPa SSW 43.3 km/h 51.8 km/h 33 % 0 mm
16:54 29.8 °C 15.2 °C 1000.2 hPa SW 27.5 km/h 35.2 km/h 41 % 0 mm
16:59 28.4 °C 15.7 °C 999.9 hPa South 16.6 km/h 25.9 km/h 46 % 0 mm
17:04 28.3 °C 15.9 °C 1000.2 hPa South 11.6 km/h 22.2 km/h 47 % 0 mm
17:09 29.1 °C 15.6 °C 1000.6 hPa WSW 14.3 km/h 22.2 km/h 44 % 0 mm
17:14 30.2 °C 14.7 °C 1000.2 hPa SW 18.7 km/h 35.2 km/h 39 % 0 mm
17:19 30.1 °C 14.6 °C 1000.2 hPa SSW 22.2 km/h 31.5 km/h 39 % 0 mm
17:24 30 °C 14.6 °C 1000.6 hPa South 23.8 km/h 33.3 km/h 39 % 0 mm
17:29 30 °C 14.6 °C 1000.6 hPa SSW 15.4 km/h 20.4 km/h 39 % 0 mm
17:34 29.9 °C 14.4 °C 1000.2 hPa SW 20.9 km/h 31.5 km/h 39 % 0 mm
17:39 29.8 °C 14.4 °C 1000.2 hPa South 15.8 km/h 24.1 km/h 39 % 0 mm
17:44 29.9 °C 14.5 °C 1000.2 hPa SW 17.4 km/h 29.6 km/h 39 % 0 mm
17:49 30.1 °C 14.2 °C 1000.6 hPa SSW 31.2 km/h 42.6 km/h 38 % 0 mm
17:54 29.8 °C 14.3 °C 1000.6 hPa South 25.4 km/h 33.3 km/h 39 % 0 mm
17:59 29.6 °C 14.6 °C 1000.6 hPa SSW 22 km/h 31.5 km/h 40 % 0 mm
18:04 29.6 °C 14.6 °C 1000.6 hPa SSW 15 km/h 38.9 km/h 40 % 0 mm
18:09 29.7 °C 14.7 °C 1000.6 hPa SW 13.2 km/h 16.7 km/h 40 % 0 mm
18:14 29.9 °C 14.4 °C 1000.6 hPa SSW 11.3 km/h 27.8 km/h 39 % 0 mm
18:19 29.7 °C 14.3 °C 1000.6 hPa SW 12.4 km/h 22.2 km/h 39 % 0 mm
18:24 29.7 °C 14.3 °C 1000.6 hPa WSW 17.1 km/h 24.1 km/h 39 % 0 mm
18:29 29.5 °C 14.5 °C 1000.9 hPa SSW 16.7 km/h 24.1 km/h 40 % 0 mm
18:34 29.3 °C 14.3 °C 1000.9 hPa SW 20.3 km/h 27.8 km/h 40 % 0 mm
18:39 29.1 °C 14.5 °C 1000.9 hPa SSW 13.8 km/h 20.4 km/h 41 % 0 mm
18:44 29.2 °C 14.2 °C 1000.9 hPa North 13.4 km/h 19.3 km/h 40 % 0 mm
18:49 29.1 °C 14.1 °C 1000.9 hPa SW 9 km/h 16.1 km/h 40 % 0 mm
18:54 29.2 °C 13.8 °C 1000.9 hPa SW 9.8 km/h 13 km/h 39 % 0 mm
18:59 29.4 °C 13.2 °C 1000.9 hPa West 20.1 km/h 27.8 km/h 37 % 0 mm
19:04 29.4 °C 13.2 °C 1000.9 hPa West 20.4 km/h 22.5 km/h 37 % 0 mm
19:09 29.4 °C 13.2 °C 1001.2 hPa North 19.8 km/h 29.6 km/h 37 % 0 mm
19:14 29.2 °C 13.4 °C 1001.2 hPa SW 13.2 km/h 18.5 km/h 38 % 0 mm
19:19 28.7 °C 13 °C 1001.2 hPa SW 15.9 km/h 27.8 km/h 38 % 0 mm
19:24 28.4 °C 13.1 °C 1001.6 hPa SW 10.8 km/h 18.5 km/h 39 % 0 mm
19:29 28.2 °C 12.9 °C 1001.6 hPa WSW 8.9 km/h 18.5 km/h 39 % 0 mm
19:34 28.1 °C 13.2 °C 1001.6 hPa SW 13.7 km/h 20.4 km/h 40 % 0 mm
19:39 27.9 °C 13.1 °C 1001.9 hPa WSW 10.9 km/h 16.7 km/h 40 % 0 mm
19:44 27.9 °C 13.1 °C 1001.9 hPa North 14 km/h 22.2 km/h 40 % 0 mm
19:49 27.9 °C 13.4 °C 1001.9 hPa SSW 12.6 km/h 18.5 km/h 41 % 0 mm
19:54 27.4 °C 13.7 °C 1002.3 hPa SSW 12.6 km/h 20.4 km/h 43 % 0 mm
19:59 26.9 °C 14.3 °C 1002.3 hPa SSW 22.4 km/h 35.2 km/h 46 % 0 mm
20:04 26.3 °C 14.8 °C 1002.6 hPa South 14.5 km/h 20.4 km/h 49 % 0 mm
20:09 25.6 °C 14.9 °C 1002.6 hPa South 12.9 km/h 25.9 km/h 52 % 0 mm
20:14 25.1 °C 15.2 °C 1002.6 hPa South 12.4 km/h 25.9 km/h 54 % 0 mm
20:19 24.8 °C 15.1 °C 1002.9 hPa SSW 18 km/h 25.9 km/h 55 % 0 mm
20:24 24.4 °C 15.1 °C 1002.9 hPa SW 20.4 km/h 31.5 km/h 56 % 0 mm
20:29 24.2 °C 14.8 °C 1002.9 hPa SSW 12.9 km/h 19.3 km/h 56 % 0 mm
20:34 23.6 °C 14.3 °C 1003.3 hPa SSW 21.6 km/h 37 km/h 56 % 0 mm
20:39 23.3 °C 14 °C 1003.3 hPa SSW 17.4 km/h 24.1 km/h 56 % 0 mm
20:44 22.9 °C 13.9 °C 1003.6 hPa North 10 km/h 18.5 km/h 57 % 0 mm
20:49 22.4 °C 14.2 °C 1003.6 hPa SSW 19 km/h 31.5 km/h 60 % 0 mm
20:54 21.8 °C 14.2 °C 1003.6 hPa SSW 17.2 km/h 27.8 km/h 62 % 0 mm
20:59 21.4 °C 14.1 °C 1003.9 hPa SSW 16.4 km/h 32.2 km/h 63 % 0 mm
21:04 21.1 °C 14 °C 1004.3 hPa North 27 km/h 38.6 km/h 64 % 0 mm
21:09 20.6 °C 13.6 °C 1004.3 hPa SW 25.1 km/h 35.2 km/h 64 % 0 mm
21:14 20.2 °C 13.2 °C 1004.3 hPa SW 32.2 km/h 48.1 km/h 64 % 0 mm
21:19 19.9 °C 12.9 °C 1004.3 hPa SW 22.7 km/h 29.6 km/h 64 % 0 mm
21:24 19.8 °C 13 °C 1004.6 hPa SSW 26.6 km/h 35.2 km/h 65 % 0 mm
21:29 19.5 °C 12.7 °C 1004.6 hPa North 28.8 km/h 40.7 km/h 65 % 0 mm
21:34 19.3 °C 12.6 °C 1004.6 hPa SSW 25.1 km/h 40.7 km/h 65 % 0 mm
21:39 19.1 °C 12.3 °C 1004.6 hPa SW 20.3 km/h 31.5 km/h 65 % 0 mm
21:44 18.9 °C 12.4 °C 1005 hPa WSW 23.8 km/h 35.2 km/h 66 % 0 mm
21:49 18.7 °C 12.7 °C 1005 hPa SW 22.2 km/h 33.3 km/h 68 % 0 mm
21:54 18.4 °C 12.7 °C 1005 hPa North 19.6 km/h 31.5 km/h 69 % 0 mm
21:59 18.2 °C 12.4 °C 1005.3 hPa SSW 24.8 km/h 38.6 km/h 69 % 0 mm
22:04 17.9 °C 12.2 °C 1005.3 hPa SW 18 km/h 25.9 km/h 69 % 0 mm
22:09 17.8 °C 12 °C 1005.3 hPa SSW 18.2 km/h 27.4 km/h 69 % 0 mm
22:14 17.6 °C 11.6 °C 1005.6 hPa SW 13.4 km/h 27.8 km/h 68 % 0 mm
22:19 17.4 °C 11.7 °C 1005.6 hPa SSW 12.7 km/h 20.4 km/h 69 % 0 mm
22:24 17.3 °C 11.8 °C 1006 hPa SSW 14.8 km/h 27.8 km/h 70 % 0 mm
22:29 17.1 °C 12 °C 1006 hPa SSW 10.8 km/h 18.5 km/h 72 % 0 mm
22:34 16.9 °C 12 °C 1006 hPa SSW 15.9 km/h 25.9 km/h 73 % 0 mm
22:39 16.7 °C 12 °C 1006 hPa South 10.1 km/h 18.5 km/h 74 % 0 mm
22:44 16.4 °C 11.8 °C 1006.3 hPa SSW 11.3 km/h 18.5 km/h 74 % 0 mm
22:49 16.3 °C 11.6 °C 1006.3 hPa South 11.4 km/h 14.8 km/h 74 % 0 mm
22:54 16 °C 11.6 °C 1006.3 hPa SSW 19.5 km/h 33.8 km/h 75 % 0 mm
22:59 15.9 °C 11.4 °C 1006 hPa SSW 16.4 km/h 24.1 km/h 75 % 0 mm
23:04 15.7 °C 11.5 °C 1006 hPa SSW 18.5 km/h 24.1 km/h 76 % 0 mm
23:09 15.6 °C 11.6 °C 1006 hPa North 19.6 km/h 31.5 km/h 77 % 0 mm
23:14 15.4 °C 11.6 °C 1006.3 hPa SW 18 km/h 29 km/h 78 % 0 mm
23:19 15.3 °C 11.4 °C 1006.3 hPa SW 20.4 km/h 33.3 km/h 78 % 0 mm
23:24 15.2 °C 11.6 °C 1006.3 hPa SSW 16.7 km/h 24.1 km/h 79 % 0 mm
23:29 15.2 °C 11.6 °C 1006.7 hPa North 15.1 km/h 18.5 km/h 79 % 0 mm
23:34 15.1 °C 11.4 °C 1006.7 hPa SSW 7.9 km/h 16.7 km/h 79 % 0 mm
23:39 15 °C 11.4 °C 1006.7 hPa South 12.6 km/h 22.2 km/h 79 % 0 mm
23:44 14.9 °C 11.3 °C 1006.7 hPa North 11.7 km/h 20.4 km/h 79 % 0 mm
23:49 14.8 °C 11.2 °C 1006.3 hPa South 11.7 km/h 17.7 km/h 79 % 0 mm
23:54 14.7 °C 11.1 °C 1006.3 hPa SSW 6.6 km/h 9.3 km/h 79 % 0 mm
23:59 14.6 °C 11.2 °C 1006.3 hPa SSW 12.4 km/h 18.5 km/h 80 % 0 mm
Ararat Weather
Compliments of Weather Underground - 2.25 mb
Click here to send mail.


ABOUT

Live weather data from Ararat, Victoria, Australia, 3377
Data uploaded from Cumulus every 5 minutes to Weather Underground.
This site then downloads the raw data for formatting and display.
Metric and imperial data can be displayed. Graphs and historical data available.
Includes Sun and Moon times and rain image live from BOM.

Check out Ararat Weather on Facebook, Twitter and Google +

Help support ongoing costs by checking out the ads





Follow @AraratWeather